Time;durP1;ratioP1;P1;durP2;ratioP2;P2;SDS_P1;SDS_P2;PMS_P1;PMS_P2;Temp;Humidity;BMP_temperature;BMP_pressure;BME280_temperature;BME280_humidity;BME280_pressure;Samples;Min_cycle;Max_cycle;Signal;HPM_P1;HPM_P2
2023/11/28 03:48:04;;;;;;;1.83;1.60;;;;;;;;;;4976834;28;20670;-90
2023/11/28 03:51:58;;;;;;;1.30;1.20;;;;;;;;;;4902548;29;20538;-89
2023/11/28 03:59:41;;;;;;;1.30;1.10;;;;;;;;;;4935502;29;20615;-89
2023/11/28 04:03:14;;;;;;;1.40;1.30;;;;;;;;;;4957810;29;20175;-90
2023/11/28 04:06:18;;;;;;;1.40;1.30;;;;;;;;;;4946733;29;20541;-90
2023/11/28 04:09:22;;;;;;;1.53;1.30;;;;;;;;;;4924672;29;20227;-90
2023/11/28 04:12:26;;;;;;;1.70;1.60;;;;;;;;;;4935275;29;20179;-89
2023/11/28 04:15:30;;;;;;;2.80;1.47;;;;;;;;;;4946282;29;20215;-89
2023/11/28 04:18:34;;;;;;;1.70;1.60;;;;;;;;;;4946465;29;20215;-89
2023/11/28 04:21:38;;;;;;;1.70;1.50;;;;;;;;;;4968447;28;20544;-89
2023/11/28 04:24:43;;;;;;;1.50;1.40;;;;;;;;;;4946429;29;20183;-89
2023/11/28 04:27:49;;;;;;;2.07;1.63;;;;;;;;;;4935997;29;21077;-89
2023/11/28 04:30:53;;;;;;;1.70;1.60;;;;;;;;;;4946295;29;20188;-88
2023/11/28 04:33:59;;;;;;;2.27;1.97;;;;;;;;;;4968014;28;20179;-88
2023/11/28 04:37:03;;;;;;;2.17;1.97;;;;;;;;;;4957281;29;20211;-87
2023/11/28 04:40:08;;;;;;;2.00;1.70;;;;;;;;;;4946111;29;20219;-88
2023/11/28 04:43:12;;;;;;;2.17;1.70;;;;;;;;;;4935257;29;20560;-87
2023/11/28 04:46:17;;;;;;;1.90;1.70;;;;;;;;;;4945542;28;20664;-87
2023/11/28 04:49:23;;;;;;;1.90;1.70;;;;;;;;;;4956633;29;20211;-87
2023/11/28 04:52:27;;;;;;;2.30;2.10;;;;;;;;;;4956635;29;20179;-87
2023/11/28 04:55:31;;;;;;;2.37;1.83;;;;;;;;;;4956719;29;20213;-87
2023/11/28 04:58:35;;;;;;;1.87;1.73;;;;;;;;;;4956950;29;20227;-87
2023/11/28 05:01:47;;;;;;;1.90;1.80;;;;;;;;;;4956583;29;20645;-87
2023/11/28 05:04:50;;;;;;;2.33;2.13;;;;;;;;;;4967683;28;20184;-87
2023/11/28 05:07:57;;;;;;;2.40;2.20;;;;;;;;;;4945247;29;20183;-87
2023/11/28 05:11:05;;;;;;;2.40;2.10;;;;;;;;;;4945530;29;20191;-87
2023/11/28 05:14:09;;;;;;;2.20;2.00;;;;;;;;;;4945201;29;20637;-87
2023/11/28 05:17:14;;;;;;;2.27;2.07;;;;;;;;;;4934213;29;20211;-87
2023/11/28 05:20:18;;;;;;;2.40;2.20;;;;;;;;;;4945261;29;20227;-87
2023/11/28 05:23:23;;;;;;;2.60;2.40;;;;;;;;;;4944215;29;20562;-88
2023/11/28 05:26:27;;;;;;;2.57;2.37;;;;;;;;;;4956186;29;20179;-88
2023/11/28 05:29:32;;;;;;;2.63;2.40;;;;;;;;;;4956205;29;20215;-88
2023/11/28 05:32:36;;;;;;;2.60;2.40;;;;;;;;;;4944943;29;20188;-88
2023/11/28 05:35:40;;;;;;;2.60;2.40;;;;;;;;;;4955985;29;20215;-88
2023/11/28 05:38:44;;;;;;;2.73;2.47;;;;;;;;;;4955836;29;20215;-88
2023/11/28 05:41:49;;;;;;;2.70;2.13;;;;;;;;;;4956009;29;20187;-88
2023/11/28 05:44:53;;;;;;;2.70;2.20;;;;;;;;;;4967295;28;20183;-88
2023/11/28 05:47:57;;;;;;;3.70;2.57;;;;;;;;;;4944760;29;20203;-88
2023/11/28 05:51:01;;;;;;;3.33;2.00;;;;;;;;;;4944606;29;20179;-88
2023/11/28 05:54:05;;;;;;;2.50;2.20;;;;;;;;;;4956237;29;20179;-88
2023/11/28 05:57:09;;;;;;;2.20;2.00;;;;;;;;;;4955657;29;20215;-88
2023/11/28 06:00:14;;;;;;;3.07;2.00;;;;;;;;;;4955356;29;20219;-88
2023/11/28 06:03:25;;;;;;;2.37;2.17;;;;;;;;;;4956369;28;20188;-88
2023/11/28 06:06:29;;;;;;;2.10;1.90;;;;;;;;;;4966982;28;20180;-88
2023/11/28 06:09:33;;;;;;;2.30;2.10;;;;;;;;;;4955274;29;20223;-88
2023/11/28 06:12:38;;;;;;;2.30;2.00;;;;;;;;;;4966430;28;20187;-88
2023/11/28 06:15:42;;;;;;;1.67;1.40;;;;;;;;;;4944131;29;20187;-87
2023/11/28 06:18:46;;;;;;;1.57;1.47;;;;;;;;;;4944453;29;20222;-87
2023/11/28 06:21:50;;;;;;;1.70;1.60;;;;;;;;;;4955420;29;20187;-87
2023/11/28 06:24:55;;;;;;;1.63;1.53;;;;;;;;;;4956121;29;20188;-89
2023/11/28 06:27:59;;;;;;;1.87;1.60;;;;;;;;;;4943764;29;20180;-88
2023/11/28 06:31:03;;;;;;;1.60;1.50;;;;;;;;;;4944082;29;20184;-88
2023/11/28 06:34:07;;;;;;;2.10;1.80;;;;;;;;;;4966068;28;20183;-88
2023/11/28 06:37:12;;;;;;;1.57;1.47;;;;;;;;;;4954740;29;20215;-87
2023/11/28 06:40:18;;;;;;;1.50;1.40;;;;;;;;;;4955298;29;20219;-87
2023/11/28 06:43:22;;;;;;;1.73;1.60;;;;;;;;;;4955568;29;20184;-87
2023/11/28 06:46:26;;;;;;;2.40;1.20;;;;;;;;;;4944015;28;20211;-86
2023/11/28 06:49:31;;;;;;;1.70;1.60;;;;;;;;;;4966667;28;20219;-86
2023/11/28 06:52:36;;;;;;;26.87;12.30;;;;;;;;;;4967495;28;20180;-86
2023/11/28 06:55:41;;;;;;;26.23;19.43;;;;;;;;;;4945552;29;20188;-86
2023/11/28 06:58:45;;;;;;;4.07;3.67;;;;;;;;;;4945825;29;20223;-86
2023/11/28 07:01:49;;;;;;;2.73;2.53;;;;;;;;;;4957891;29;20188;-86
2023/11/28 07:04:54;;;;;;;2.47;2.10;;;;;;;;;;4956504;29;20641;-86
2023/11/28 07:07:58;;;;;;;1.90;1.60;;;;;;;;;;4956612;29;20184;-86
2023/11/28 07:11:02;;;;;;;2.03;1.70;;;;;;;;;;4946779;29;20183;-86
2023/11/28 07:14:07;;;;;;;15.33;9.87;;;;;;;;;;4947016;29;20184;-86
2023/11/28 07:17:11;;;;;;;37.77;24.70;;;;;;;;;;4958592;29;20211;-86
2023/11/28 07:20:15;;;;;;;47.07;31.53;;;;;;;;;;4947548;29;20227;-86
2023/11/28 07:23:20;;;;;;;22.90;15.73;;;;;;;;;;4949979;29;20188;-85
2023/11/28 07:26:24;;;;;;;5.33;4.60;;;;;;;;;;4938269;29;20180;-85
2023/11/28 07:29:29;;;;;;;3.60;3.17;;;;;;;;;;4950035;29;20215;-85
2023/11/28 07:32:33;;;;;;;2.67;2.10;;;;;;;;;;4950230;29;20188;-86
2023/11/28 07:35:37;;;;;;;3.27;2.53;;;;;;;;;;4948871;29;20183;-85
2023/11/28 07:38:45;;;;;;;2.20;2.00;;;;;;;;;;4970263;28;20207;-85
2023/11/28 07:41:49;;;;;;;1.90;1.60;;;;;;;;;;4947331;29;20187;-85
2023/11/28 07:44:54;;;;;;;2.30;1.60;;;;;;;;;;4948127;28;20183;-85
2023/11/28 07:47:58;;;;;;;3.23;2.93;;;;;;;;;;4962473;29;20199;-86
2023/11/28 07:51:03;;;;;;;1.80;1.57;;;;;;;;;;4961995;29;20179;-85
2023/11/28 07:54:07;;;;;;;3.37;2.50;;;;;;;;;;4951780;29;20187;-85
2023/11/28 07:57:11;;;;;;;5.57;3.40;;;;;;;;;;4952050;29;20211;-85
2023/11/28 08:00:20;;;;;;;9.53;7.07;;;;;;;;;;4940751;29;20215;-85
2023/11/28 08:03:24;;;;;;;5.87;4.13;;;;;;;;;;4964331;29;20188;-85
2023/11/28 08:06:28;;;;;;;3.20;2.80;;;;;;;;;;4963095;29;20633;-85
2023/11/28 08:09:32;;;;;;;2.40;2.20;;;;;;;;;;4951466;29;20215;-85
2023/11/28 08:12:38;;;;;;;1.40;1.30;;;;;;;;;;4951781;29;20183;-85
2023/11/28 08:15:42;;;;;;;1.60;1.30;;;;;;;;;;4951235;29;20180;-84
2023/11/28 08:18:47;;;;;;;1.50;1.40;;;;;;;;;;4961114;29;20207;-84
2023/11/28 08:21:51;;;;;;;1.47;1.37;;;;;;;;;;4940016;29;20179;-85
2023/11/28 08:24:55;;;;;;;5.03;4.50;;;;;;;;;;4951454;29;20184;-85
2023/11/28 08:27:59;;;;;;;3.33;3.03;;;;;;;;;;4962536;29;20176;-85
2023/11/28 08:31:04;;;;;;;1.70;1.37;;;;;;;;;;4951869;29;20179;-85
2023/11/28 08:34:09;;;;;;;1.40;1.30;;;;;;;;;;4963727;29;20187;-84
2023/11/28 08:37:13;;;;;;;3.03;2.73;;;;;;;;;;4960776;29;20208;-84
2023/11/28 08:40:17;;;;;;;3.13;2.73;;;;;;;;;;4961983;29;20223;-84
2023/11/28 08:43:21;;;;;;;3.93;2.87;;;;;;;;;;4962131;29;20183;-84
2023/11/28 08:46:25;;;;;;;1.70;1.60;;;;;;;;;;4972289;28;20211;-84
2023/11/28 08:49:29;;;;;;;1.20;1.10;;;;;;;;;;4950449;29;20219;-84
2023/11/28 08:52:34;;;;;;;1.47;1.30;;;;;;;;;;4963124;29;20183;-84
2023/11/28 08:55:38;;;;;;;1.37;1.20;;;;;;;;;;4949879;29;20179;-84
2023/11/28 08:58:42;;;;;;;1.30;1.20;;;;;;;;;;4961527;28;20220;-84
2023/11/28 09:01:46;;;;;;;1.63;1.53;;;;;;;;;;4948998;29;20183;-83
2023/11/28 09:04:50;;;;;;;1.50;1.27;;;;;;;;;;4961341;29;20188;-84
2023/11/28 09:07:57;;;;;;;1.43;1.20;;;;;;;;;;4970662;28;20184;-83
2023/11/28 09:11:02;;;;;;;1.70;1.60;;;;;;;;;;4961203;29;20516;-83
2023/11/28 09:14:06;;;;;;;1.50;1.33;;;;;;;;;;4960497;29;20179;-83
2023/11/28 09:17:11;;;;;;;1.60;1.20;;;;;;;;;;4960109;29;20207;-83
2023/11/28 09:20:15;;;;;;;1.10;1.00;;;;;;;;;;4960743;29;20226;-83
2023/11/28 09:23:19;;;;;;;1.43;1.00;;;;;;;;;;4960027;29;20540;-84
2023/11/28 09:26:26;;;;;;;1.03;0.93;;;;;;;;;;4970017;28;20179;-85
2023/11/28 09:29:30;;;;;;;1.20;1.10;;;;;;;;;;4969004;28;20223;-84
2023/11/28 09:32:35;;;;;;;1.10;1.00;;;;;;;;;;4969119;28;20582;-84
2023/11/28 09:35:40;;;;;;;0.90;0.80;;;;;;;;;;4969689;28;20188;-83
2023/11/28 09:38:45;;;;;;;0.73;0.70;;;;;;;;;;4959209;29;20235;-84
2023/11/28 09:41:50;;;;;;;2.50;1.00;;;;;;;;;;4959385;29;20195;-83
2023/11/28 09:44:59;;;;;;;39.63;18.53;;;;;;;;;;4947373;29;20179;-84
2023/11/28 09:48:08;;;;;;;1.83;1.63;;;;;;;;;;4964973;28;20175;-84
2023/11/28 09:51:15;;;;;;;2.60;2.33;;;;;;;;;;4947255;29;20561;-84
2023/11/28 09:54:20;;;;;;;1.70;1.60;;;;;;;;;;4968997;28;20625;-84
2023/11/28 09:57:32;;;;;;;2.23;1.60;;;;;;;;;;4935514;29;20211;-84
2023/11/28 10:00:36;;;;;;;1.00;1.00;;;;;;;;;;4958073;29;20215;-84
2023/11/28 10:03:40;;;;;;;1.10;1.00;;;;;;;;;;4961753;29;20187;-83
2023/11/28 10:06:46;;;;;;;2.10;1.00;;;;;;;;;;4949541;29;20191;-83
2023/11/28 10:09:50;;;;;;;0.93;0.93;;;;;;;;;;4949365;29;20227;-82
2023/11/28 10:12:54;;;;;;;0.80;0.80;;;;;;;;;;4961945;29;20184;-82
2023/11/28 10:16:01;;;;;;;1.43;1.00;;;;;;;;;;4961907;29;20575;-82
2023/11/28 10:19:06;;;;;;;10.13;6.43;;;;;;;;;;4971358;28;20235;-82
2023/11/28 10:22:12;;;;;;;19.13;11.20;;;;;;;;;;4948504;29;20184;-82
2023/11/28 10:25:17;;;;;;;1.20;1.10;;;;;;;;;;4960791;29;20198;-82
2023/11/28 10:28:21;;;;;;;0.67;0.67;;;;;;;;;;4960745;29;20188;-82
2023/11/28 10:31:25;;;;;;;0.60;0.60;;;;;;;;;;4959944;29;20645;-83
2023/11/28 10:34:31;;;;;;;0.97;0.50;;;;;;;;;;4957558;29;20598;-82
2023/11/28 10:37:36;;;;;;;0.50;0.50;;;;;;;;;;4945119;29;20211;-82
2023/11/28 10:40:43;;;;;;;5.37;4.33;;;;;;;;;;4945296;29;20184;-82
2023/11/28 10:43:47;;;;;;;1.10;1.00;;;;;;;;;;4957027;29;20188;-82
2023/11/28 10:46:56;;;;;;;0.50;0.50;;;;;;;;;;4957213;29;20211;-82
2023/11/28 10:50:00;;;;;;;0.93;0.80;;;;;;;;;;4944751;29;20223;-82
2023/11/28 10:53:04;;;;;;;0.50;0.50;;;;;;;;;;4957401;29;20203;-83
2023/11/28 10:56:10;;;;;;;0.87;0.70;;;;;;;;;;4957675;29;20192;-82
2023/11/28 10:59:33;;;;;;;0.60;0.60;;;;;;;;;;4956951;29;20234;-83
2023/11/28 11:02:36;;;;;;;0.67;0.67;;;;;;;;;;4945059;29;20184;-82
2023/11/28 11:05:44;;;;;;;1.07;0.70;;;;;;;;;;4967876;28;20191;-83
2023/11/28 11:08:49;;;;;;;0.60;0.60;;;;;;;;;;4944980;29;20688;-82
2023/11/28 11:11:57;;;;;;;1.47;0.50;;;;;;;;;;4945196;29;20548;-83
2023/11/28 11:15:16;;;;;;;8.40;4.87;;;;;;;;;;4945326;29;20188;-84
2023/11/28 11:18:34;;;;;;;3.70;2.50;;;;;;;;;;4956654;29;20211;-83
2023/11/28 11:21:57;;;;;;;0.60;0.60;;;;;;;;;;4935706;29;21077;-82
2023/11/28 11:25:03;;;;;;;1.57;0.67;;;;;;;;;;4948821;29;20539;-83
2023/11/28 11:28:08;;;;;;;3.27;2.50;;;;;;;;;;4961060;29;20536;-82
2023/11/28 11:31:14;;;;;;;0.80;0.70;;;;;;;;;;4948693;29;20540;-82
2023/11/28 11:34:35;;;;;;;9.27;6.40;;;;;;;;;;4971463;28;20539;-82
2023/11/28 11:37:40;;;;;;;6.17;4.23;;;;;;;;;;4960845;29;20591;-82
2023/11/28 11:40:44;;;;;;;2.17;1.87;;;;;;;;;;4938184;29;20902;-83
2023/11/28 11:43:52;;;;;;;0.93;0.80;;;;;;;;;;4971836;28;20544;-83
2023/11/28 11:47:01;;;;;;;0.60;0.60;;;;;;;;;;4960190;29;20618;-82
2023/11/28 11:50:07;;;;;;;0.63;0.63;;;;;;;;;;4959666;29;20614;-82
2023/11/28 11:53:12;;;;;;;0.60;0.60;;;;;;;;;;4960390;29;20536;-82
2023/11/28 11:56:18;;;;;;;0.67;0.60;;;;;;;;;;4946855;29;20539;-81
2023/11/28 11:59:25;;;;;;;1.20;1.00;;;;;;;;;;4946747;29;20650;-81
2023/11/28 12:02:41;;;;;;;1.30;1.20;;;;;;;;;;4958878;29;20183;-82
2023/11/28 12:05:52;;;;;;;1.77;0.70;;;;;;;;;;4948616;29;20536;-80
2023/11/28 12:09:00;;;;;;;0.70;0.70;;;;;;;;;;4960253;29;20626;-80
2023/11/28 12:12:06;;;;;;;1.33;1.23;;;;;;;;;;4960049;29;20179;-81
2023/11/28 12:15:10;;;;;;;1.40;1.10;;;;;;;;;;4948713;29;20539;-80
2023/11/28 12:18:14;;;;;;;0.60;0.60;;;;;;;;;;4959893;29;20669;-80
2023/11/28 12:21:18;;;;;;;0.80;0.80;;;;;;;;;;4970393;28;20543;-81
2023/11/28 12:24:22;;;;;;;13.60;6.87;;;;;;;;;;4960669;29;20539;-80
2023/11/28 12:27:27;;;;;;;2.33;1.80;;;;;;;;;;4959349;29;20540;-81
2023/11/28 12:30:32;;;;;;;1.10;1.00;;;;;;;;;;4959787;29;20614;-81
2023/11/28 12:33:37;;;;;;;1.43;1.00;;;;;;;;;;4959317;29;20183;-80
2023/11/28 12:36:45;;;;;;;0.60;0.60;;;;;;;;;;4960219;29;20546;-81
2023/11/28 12:39:53;;;;;;;0.87;0.83;;;;;;;;;;4960000;29;20620;-80
2023/11/28 12:43:01;;;;;;;0.90;0.90;;;;;;;;;;4960006;29;20547;-81
2023/11/28 12:46:07;;;;;;;1.90;1.50;;;;;;;;;;4959517;28;20626;-80
2023/11/28 12:49:11;;;;;;;2.53;1.90;;;;;;;;;;4959211;29;20613;-81
2023/11/28 12:52:15;;;;;;;5.30;3.53;;;;;;;;;;4959739;29;20540;-81
2023/11/28 12:55:21;;;;;;;19.43;11.40;;;;;;;;;;4959029;29;20536;-80
2023/11/28 12:58:26;;;;;;;2.70;2.10;;;;;;;;;;4948051;29;20614;-81
2023/11/28 13:01:31;;;;;;;3.67;2.60;;;;;;;;;;4969900;28;20536;-81
2023/11/28 13:04:36;;;;;;;2.60;1.27;;;;;;;;;;4959520;29;20540;-81
2023/11/28 13:07:40;;;;;;;1.30;1.20;;;;;;;;;;4959263;29;21085;-81
2023/11/28 13:10:44;;;;;;;2.67;2.10;;;;;;;;;;4947517;29;20539;-81
2023/11/28 13:13:49;;;;;;;1.27;1.10;;;;;;;;;;4958803;29;20542;-81
2023/11/28 13:16:53;;;;;;;1.37;1.20;;;;;;;;;;4959031;29;20536;-81
2023/11/28 13:19:57;;;;;;;0.80;0.80;;;;;;;;;;4947395;29;20658;-81
2023/11/28 13:23:01;;;;;;;1.30;1.20;;;;;;;;;;4970384;28;20547;-80
2023/11/28 13:26:06;;;;;;;1.30;1.20;;;;;;;;;;4960468;29;20540;-81
2023/11/28 13:29:11;;;;;;;1.30;1.20;;;;;;;;;;4959813;29;20623;-82
2023/11/28 13:32:15;;;;;;;2.20;1.87;;;;;;;;;;4970637;28;20905;-81
2023/11/28 13:35:19;;;;;;;1.30;1.20;;;;;;;;;;4948658;29;20532;-80
2023/11/28 13:38:24;;;;;;;2.10;1.60;;;;;;;;;;4960244;29;20629;-80
2023/11/28 13:41:27;;;;;;;1.37;1.27;;;;;;;;;;4948295;29;20535;-80
2023/11/28 13:44:32;;;;;;;1.20;1.10;;;;;;;;;;4959406;28;20924;-80
2023/11/28 13:47:36;;;;;;;3.97;3.10;;;;;;;;;;4959672;28;21178;-80
2023/11/28 13:50:40;;;;;;;4.80;3.60;;;;;;;;;;4959700;29;21103;-80
2023/11/28 13:53:44;;;;;;;6.23;3.40;;;;;;;;;;4947980;29;21119;-80
2023/11/28 13:56:48;;;;;;;5.43;4.03;;;;;;;;;;4959587;29;20543;-80
2023/11/28 13:59:53;;;;;;;4.00;3.23;;;;;;;;;;4947395;29;20655;-80
2023/11/28 14:02:58;;;;;;;1.60;1.50;;;;;;;;;;4959603;29;20543;-80
2023/11/28 14:06:03;;;;;;;4.97;3.93;;;;;;;;;;4959207;29;20540;-80
2023/11/28 14:09:11;;;;;;;4.10;3.00;;;;;;;;;;4959259;29;20619;-80
2023/11/28 14:12:15;;;;;;;6.17;3.50;;;;;;;;;;4959215;29;20562;-81
2023/11/28 14:15:19;;;;;;;17.10;8.63;;;;;;;;;;4947185;29;20543;-80
2023/11/28 14:18:24;;;;;;;3.80;2.80;;;;;;;;;;4959546;29;20599;-80
2023/11/28 14:21:29;;;;;;;10.00;6.97;;;;;;;;;;4959308;29;20556;-81
2023/11/28 14:24:33;;;;;;;2.97;2.27;;;;;;;;;;4958978;29;20540;-80
2023/11/28 14:27:38;;;;;;;5.93;3.10;;;;;;;;;;4969274;28;20540;-81
2023/11/28 14:30:43;;;;;;;3.77;2.60;;;;;;;;;;4959067;29;20555;-80
2023/11/28 14:33:47;;;;;;;2.77;2.10;;;;;;;;;;4958772;29;20540;-81
2023/11/28 14:36:52;;;;;;;5.63;3.60;;;;;;;;;;4958792;29;20559;-80
2023/11/28 14:39:56;;;;;;;3.70;2.90;;;;;;;;;;4957647;29;20655;-80
2023/11/28 14:43:00;;;;;;;7.37;5.60;;;;;;;;;;4958674;29;20547;-81
2023/11/28 14:46:05;;;;;;;4.17;3.40;;;;;;;;;;4946724;29;20960;-80
2023/11/28 14:49:09;;;;;;;8.60;5.03;;;;;;;;;;4946997;29;20611;-81
2023/11/28 14:52:15;;;;;;;2.93;2.13;;;;;;;;;;4959260;29;20555;-81
2023/11/28 14:55:19;;;;;;;4.70;3.30;;;;;;;;;;4946297;29;20898;-81
2023/11/28 14:58:24;;;;;;;4.63;2.70;;;;;;;;;;4968544;28;21068;-81
2023/11/28 15:01:28;;;;;;;6.30;4.00;;;;;;;;;;4958344;29;20893;-81
2023/11/28 15:04:34;;;;;;;2.70;2.37;;;;;;;;;;4946583;29;20540;-81
2023/11/28 15:07:41;;;;;;;3.87;2.90;;;;;;;;;;4958689;29;20539;-81
2023/11/28 15:10:46;;;;;;;3.87;2.90;;;;;;;;;;4957989;29;20532;-81
2023/11/28 15:13:59;;;;;;;5.23;4.03;;;;;;;;;;4958631;29;20552;-80
2023/11/28 15:17:04;;;;;;;9.00;5.00;;;;;;;;;;4958532;29;20536;-81
2023/11/28 15:20:09;;;;;;;4.80;3.63;;;;;;;;;;4946607;29;21218;-80
2023/11/28 15:23:13;;;;;;;3.70;3.20;;;;;;;;;;4957722;29;20548;-80
2023/11/28 15:26:17;;;;;;;4.13;3.37;;;;;;;;;;4959464;29;21083;-81
2023/11/28 15:29:21;;;;;;;3.87;3.47;;;;;;;;;;4960452;29;20961;-81
2023/11/28 15:32:27;;;;;;;4.57;3.70;;;;;;;;;;4948470;29;20536;-81
2023/11/28 15:35:31;;;;;;;4.10;3.50;;;;;;;;;;4948178;29;20544;-81
2023/11/28 15:38:36;;;;;;;7.90;6.73;;;;;;;;;;4959776;29;20631;-81
2023/11/28 15:41:40;;;;;;;4.80;4.20;;;;;;;;;;4948721;29;20543;-81
2023/11/28 15:44:44;;;;;;;3.60;3.27;;;;;;;;;;4948434;29;20540;-81
2023/11/28 15:47:48;;;;;;;3.40;3.10;;;;;;;;;;4948255;29;20634;-81
2023/11/28 15:50:52;;;;;;;3.97;3.50;;;;;;;;;;4959701;29;20539;-81
2023/11/28 15:53:56;;;;;;;4.47;4.07;;;;;;;;;;4960808;29;20548;-81
2023/11/28 15:57:00;;;;;;;4.13;3.50;;;;;;;;;;4959048;29;20559;-84
2023/11/28 16:00:05;;;;;;;4.20;3.37;;;;;;;;;;4956261;29;20659;-83
2023/11/28 16:03:13;;;;;;;3.00;2.70;;;;;;;;;;4956694;29;20540;-84
2023/11/28 16:06:19;;;;;;;5.60;4.17;;;;;;;;;;4944463;28;21127;-83
2023/11/28 16:09:23;;;;;;;6.10;4.10;;;;;;;;;;4960934;29;20615;-81
2023/11/28 16:12:27;;;;;;;13.33;11.80;;;;;;;;;;4961218;29;20547;-80
2023/11/28 16:15:32;;;;;;;5.90;5.20;;;;;;;;;;4960179;29;20551;-85
2023/11/28 16:18:36;;;;;;;3.90;3.50;;;;;;;;;;4958699;29;20634;-86
2023/11/28 16:21:40;;;;;;;5.20;4.33;;;;;;;;;;4958221;29;20539;-86
2023/11/28 16:24:44;;;;;;;5.03;4.17;;;;;;;;;;4969706;28;20544;-85
2023/11/28 16:27:49;;;;;;;8.93;5.60;;;;;;;;;;4958947;29;20543;-86
2023/11/28 16:30:53;;;;;;;5.30;3.80;;;;;;;;;;4959212;29;20540;-86
2023/11/28 16:33:57;;;;;;;4.90;3.60;;;;;;;;;;4968908;28;20543;-86
2023/11/28 16:37:01;;;;;;;14.60;7.40;;;;;;;;;;4958347;29;20555;-86
2023/11/28 16:40:08;;;;;;;23.10;11.10;;;;;;;;;;4958216;29;20655;-86
2023/11/28 16:43:12;;;;;;;15.83;8.20;;;;;;;;;;4946772;29;20552;-86
2023/11/28 16:46:16;;;;;;;38.70;15.03;;;;;;;;;;4957248;29;20619;-86
2023/11/28 16:49:21;;;;;;;23.23;9.53;;;;;;;;;;4957434;29;20984;-87
2023/11/28 16:52:26;;;;;;;13.73;7.10;;;;;;;;;;4957178;29;20548;-87
2023/11/28 16:55:32;;;;;;;54.90;20.73;;;;;;;;;;4935243;29;20539;-87
2023/11/28 16:58:37;;;;;;;8.47;5.90;;;;;;;;;;4957900;29;20630;-87
2023/11/28 17:01:42;;;;;;;6.17;5.10;;;;;;;;;;4946388;29;20532;-85
2023/11/28 17:04:46;;;;;;;4.67;3.70;;;;;;;;;;4948051;29;20933;-85
2023/11/28 17:07:50;;;;;;;5.83;4.67;;;;;;;;;;4958936;29;20639;-85
2023/11/28 17:10:54;;;;;;;11.00;7.27;;;;;;;;;;4957605;29;21076;-85
2023/11/28 17:13:58;;;;;;;7.37;5.83;;;;;;;;;;4957482;29;20547;-85
2023/11/28 17:17:04;;;;;;;9.10;5.80;;;;;;;;;;4946223;29;20540;-85
2023/11/28 17:20:08;;;;;;;4.93;4.30;;;;;;;;;;4946592;29;20651;-85
2023/11/28 17:23:12;;;;;;;6.73;5.40;;;;;;;;;;4957918;29;21088;-85
2023/11/28 17:26:16;;;;;;;5.03;4.20;;;;;;;;;;4945997;29;20543;-86
2023/11/28 17:29:20;;;;;;;6.17;4.90;;;;;;;;;;4957994;29;21191;-85
2023/11/28 17:32:24;;;;;;;4.70;4.20;;;;;;;;;;4946486;29;20606;-85
2023/11/28 17:35:28;;;;;;;5.73;4.60;;;;;;;;;;4958203;29;20543;-85
2023/11/28 17:38:33;;;;;;;14.87;8.60;;;;;;;;;;4957093;29;20614;-85
2023/11/28 17:41:37;;;;;;;9.83;6.57;;;;;;;;;;4957503;29;20544;-86
2023/11/28 17:44:42;;;;;;;9.53;5.90;;;;;;;;;;4957489;29;20536;-85
2023/11/28 17:47:48;;;;;;;9.67;7.07;;;;;;;;;;4945388;29;20618;-85
2023/11/28 17:50:51;;;;;;;3.97;3.57;;;;;;;;;;4956610;29;21112;-85
2023/11/28 17:53:56;;;;;;;4.90;4.40;;;;;;;;;;4945034;29;20558;-85
2023/11/28 17:57:00;;;;;;;7.30;5.03;;;;;;;;;;4946093;29;20878;-84
2023/11/28 18:00:05;;;;;;;8.07;5.13;;;;;;;;;;4945488;29;20651;-86
2023/11/28 18:03:16;;;;;;;4.43;3.53;;;;;;;;;;4955629;29;20532;-85
2023/11/28 18:06:20;;;;;;;5.40;4.20;;;;;;;;;;4957240;29;20543;-83
2023/11/28 18:09:24;;;;;;;4.77;3.57;;;;;;;;;;4957880;29;20615;-83
2023/11/28 18:12:28;;;;;;;4.83;4.27;;;;;;;;;;4957716;29;20559;-83
2023/11/28 18:15:32;;;;;;;5.50;4.60;;;;;;;;;;4945443;29;20543;-83
2023/11/28 18:18:37;;;;;;;5.53;4.27;;;;;;;;;;4957411;29;20631;-83
2023/11/28 18:21:41;;;;;;;11.37;6.47;;;;;;;;;;4957619;29;20871;-83
2023/11/28 18:24:45;;;;;;;10.70;5.77;;;;;;;;;;4968040;28;20867;-82
2023/11/28 18:27:50;;;;;;;4.83;4.20;;;;;;;;;;4957368;29;20547;-83
2023/11/28 18:30:54;;;;;;;12.10;6.90;;;;;;;;;;4933878;29;20539;-83
2023/11/28 18:33:58;;;;;;;15.53;7.37;;;;;;;;;;4945625;29;20540;-84
2023/11/28 18:37:03;;;;;;;8.63;5.63;;;;;;;;;;4945903;29;20544;-83
2023/11/28 18:40:07;;;;;;;6.73;4.93;;;;;;;;;;4934164;29;20984;-83
2023/11/28 18:43:11;;;;;;;5.03;4.43;;;;;;;;;;4956278;29;20548;-84
2023/11/28 18:46:16;;;;;;;7.13;5.90;;;;;;;;;;4956695;29;20626;-84
2023/11/28 18:49:20;;;;;;;8.97;6.57;;;;;;;;;;4957262;29;20626;-83
2023/11/28 18:52:24;;;;;;;6.57;5.87;;;;;;;;;;4945453;29;20548;-83
2023/11/28 18:55:28;;;;;;;9.97;6.93;;;;;;;;;;4957101;29;20539;-83
2023/11/28 18:58:33;;;;;;;11.27;8.40;;;;;;;;;;4956413;29;20543;-83
2023/11/28 19:01:39;;;;;;;6.93;5.60;;;;;;;;;;4934501;29;20595;-83
2023/11/28 19:04:44;;;;;;;6.97;5.63;;;;;;;;;;4945400;29;20540;-83
2023/11/28 19:07:48;;;;;;;6.17;5.37;;;;;;;;;;4945564;29;20540;-83
2023/11/28 19:10:52;;;;;;;7.87;6.03;;;;;;;;;;4945140;29;20540;-83
2023/11/28 19:14:02;;;;;;;6.67;5.13;;;;;;;;;;4956501;29;20544;-83
2023/11/28 19:17:06;;;;;;;5.43;4.87;;;;;;;;;;4945206;29;20878;-83
2023/11/28 19:20:11;;;;;;;6.57;5.40;;;;;;;;;;4956646;29;20659;-83
2023/11/28 19:23:16;;;;;;;6.13;5.00;;;;;;;;;;4945034;29;20552;-83
2023/11/28 19:26:21;;;;;;;6.23;5.47;;;;;;;;;;4957035;29;20715;-83
2023/11/28 19:29:25;;;;;;;5.83;5.23;;;;;;;;;;4956832;29;20627;-83
2023/11/28 19:32:29;;;;;;;6.63;5.03;;;;;;;;;;4956825;29;20544;-82
2023/11/28 19:35:34;;;;;;;6.20;5.27;;;;;;;;;;4945194;29;20540;-83
2023/11/28 19:38:39;;;;;;;7.13;5.60;;;;;;;;;;4944847;29;20615;-83
2023/11/28 19:41:44;;;;;;;6.50;5.40;;;;;;;;;;4957185;28;20587;-83
2023/11/28 19:44:48;;;;;;;6.10;5.33;;;;;;;;;;4948758;29;20540;-83
2023/11/28 19:47:53;;;;;;;6.10;4.97;;;;;;;;;;4960192;29;20618;-83
2023/11/28 19:51:00;;;;;;;6.73;5.40;;;;;;;;;;4948954;29;20543;-83
2023/11/28 19:54:04;;;;;;;7.80;6.57;;;;;;;;;;4960740;29;20539;-83
2023/11/28 19:57:08;;;;;;;11.40;7.70;;;;;;;;;;4959516;29;21076;-83
2023/11/28 20:00:13;;;;;;;8.20;6.63;;;;;;;;;;4936754;29;20654;-83
2023/11/28 20:03:18;;;;;;;6.87;5.77;;;;;;;;;;4947786;29;20921;-85
2023/11/28 20:06:23;;;;;;;8.30;5.50;;;;;;;;;;4948112;29;20890;-86
2023/11/28 20:09:28;;;;;;;6.83;5.70;;;;;;;;;;4947719;29;20615;-85
2023/11/28 20:12:32;;;;;;;6.13;5.13;;;;;;;;;;4947820;29;20544;-85
2023/11/28 20:15:36;;;;;;;7.40;5.80;;;;;;;;;;4958917;29;20543;-85
2023/11/28 20:18:40;;;;;;;8.20;5.13;;;;;;;;;;4959349;29;20615;-86
2023/11/28 20:21:46;;;;;;;6.67;5.43;;;;;;;;;;4959578;29;20599;-85
2023/11/28 20:24:50;;;;;;;6.90;5.57;;;;;;;;;;4936607;29;20547;-85
2023/11/28 20:27:55;;;;;;;6.43;5.57;;;;;;;;;;4969635;28;20543;-85
2023/11/28 20:30:59;;;;;;;6.83;6.10;;;;;;;;;;4949439;29;20539;-86
2023/11/28 20:34:03;;;;;;;7.43;6.10;;;;;;;;;;4950879;29;20547;-87
2023/11/28 20:37:08;;;;;;;7.47;5.90;;;;;;;;;;4962514;29;20540;-85
2023/11/28 20:40:13;;;;;;;5.90;5.30;;;;;;;;;;4950171;29;20646;-86
2023/11/28 20:43:17;;;;;;;6.13;5.50;;;;;;;;;;4951587;29;20543;-86
2023/11/28 20:46:21;;;;;;;8.10;6.23;;;;;;;;;;4972655;28;20961;-86
2023/11/28 20:49:26;;;;;;;7.87;5.70;;;;;;;;;;4973374;28;20623;-86
2023/11/28 20:52:30;;;;;;;7.20;6.10;;;;;;;;;;4950428;28;20548;-86
2023/11/28 20:55:35;;;;;;;7.67;6.43;;;;;;;;;;4949985;29;20544;-86
2023/11/28 20:58:38;;;;;;;8.40;6.67;;;;;;;;;;4939002;29;21167;-85
2023/11/28 21:01:46;;;;;;;7.37;6.37;;;;;;;;;;4972756;28;20588;-85
2023/11/28 21:04:50;;;;;;;7.30;6.20;;;;;;;;;;4940309;29;20543;-83
2023/11/28 21:07:54;;;;;;;7.23;5.80;;;;;;;;;;4963326;29;20898;-84
2023/11/28 21:10:58;;;;;;;6.47;5.63;;;;;;;;;;4949789;29;20543;-84
2023/11/28 21:14:02;;;;;;;8.67;6.20;;;;;;;;;;4960543;29;20539;-83
2023/11/28 21:17:07;;;;;;;8.47;7.10;;;;;;;;;;4939000;29;20886;-83
2023/11/28 21:20:11;;;;;;;8.07;6.67;;;;;;;;;;4950060;29;20631;-84
2023/11/28 21:23:15;;;;;;;7.83;6.60;;;;;;;;;;4949987;29;20559;-83
2023/11/28 21:26:21;;;;;;;8.47;7.07;;;;;;;;;;4961351;29;20536;-84
2023/11/28 21:29:25;;;;;;;9.57;6.63;;;;;;;;;;4951471;29;20622;-84
2023/11/28 21:32:30;;;;;;;8.67;6.63;;;;;;;;;;4939676;29;20540;-86
2023/11/28 21:35:40;;;;;;;6.63;5.87;;;;;;;;;;4950155;29;20544;-86
2023/11/28 21:38:44;;;;;;;7.20;6.07;;;;;;;;;;4949971;29;20614;-86
2023/11/28 21:41:50;;;;;;;7.67;6.17;;;;;;;;;;4961677;29;21135;-86
2023/11/28 21:44:54;;;;;;;8.80;6.40;;;;;;;;;;4970926;28;21037;-86
2023/11/28 21:47:58;;;;;;;7.23;6.47;;;;;;;;;;4947875;29;20619;-86
2023/11/28 21:51:03;;;;;;;8.80;7.20;;;;;;;;;;4939930;29;20539;-86
2023/11/28 21:54:07;;;;;;;8.27;6.70;;;;;;;;;;4937630;29;20539;-86
2023/11/28 21:57:11;;;;;;;8.47;6.67;;;;;;;;;;4960364;29;20544;-86
2023/11/28 22:00:15;;;;;;;9.40;7.07;;;;;;;;;;4959933;29;20626;-86
2023/11/28 22:03:19;;;;;;;10.33;7.57;;;;;;;;;;4938269;29;20540;-86
2023/11/28 22:06:24;;;;;;;9.87;8.10;;;;;;;;;;4937404;29;20551;-82
2023/11/28 22:09:28;;;;;;;9.13;7.27;;;;;;;;;;4949221;29;20627;-82
2023/11/28 22:12:33;;;;;;;9.17;7.50;;;;;;;;;;4949658;29;20540;-82
2023/11/28 22:15:37;;;;;;;9.13;7.17;;;;;;;;;;4950820;29;20543;-82
2023/11/28 22:18:41;;;;;;;10.17;7.60;;;;;;;;;;4961459;29;20630;-82